Terminal Aerodrome Forecast
Issued by NWS

Home | Current Version | Previous Version | Text Only | Print | Product List | Glossary On
Versions: 1 2 3 4 5 6 7 8 9 10 11 12 13 14
774
FTUS42 TJSJ 210006 RRA
TAFJSJ
TAF
TJSJ 210006Z 2100/2124 17020G40KT 3SM SHRA SCT015 BKN025
     FM210400 16020G30KT 4SM SHRA BKN025 BKN060
     FM211100 14015G25KT P6SM SHRA BKN030
     FM211500 17010G20KT P6SM VCSH SCT025 BKN045
      AMD NOT SKED=

USA.gov is the U.S. government's official web portal to all federal, state and local government web resources and services.